sensor_id;sensor_type;location;lat;lon;timestamp;pressure;altitude;pressure_sealevel;temperature
34125;BMP280;20110;53.120;5.786;2023-04-01T00:01:01;99146.16;;;17.19
34125;BMP280;20110;53.120;5.786;2023-04-01T00:03:28;99145.16;;;17.13
34125;BMP280;20110;53.120;5.786;2023-04-01T00:05:56;99153.97;;;17.15
34125;BMP280;20110;53.120;5.786;2023-04-01T00:08:23;99135.84;;;17.00
34125;BMP280;20110;53.120;5.786;2023-04-01T00:10:51;99148.03;;;17.03
34125;BMP280;20110;53.120;5.786;2023-04-01T00:13:17;99144.47;;;16.99
34125;BMP280;20110;53.120;5.786;2023-04-01T00:15:43;99111.66;;;16.73
34125;BMP280;20110;53.120;5.786;2023-04-01T00:18:09;99142.06;;;16.91
34125;BMP280;20110;53.120;5.786;2023-04-01T00:20:35;99158.34;;;16.95
34125;BMP280;20110;53.120;5.786;2023-04-01T00:23:01;99152.88;;;16.93
34125;BMP280;20110;53.120;5.786;2023-04-01T00:25:27;99156.25;;;16.93
34125;BMP280;20110;53.120;5.786;2023-04-01T00:27:53;99155.09;;;16.97
34125;BMP280;20110;53.120;5.786;2023-04-01T00:30:19;99154.97;;;16.94
34125;BMP280;20110;53.120;5.786;2023-04-01T00:32:45;99128.16;;;16.81
34125;BMP280;20110;53.120;5.786;2023-04-01T00:35:11;99155.19;;;16.99
34125;BMP280;20110;53.120;5.786;2023-04-01T00:37:39;99143.00;;;16.96
34125;BMP280;20110;53.120;5.786;2023-04-01T00:40:31;99130.53;;;16.75
34125;BMP280;20110;53.120;5.786;2023-04-01T00:42:58;99145.66;;;16.96
34125;BMP280;20110;53.120;5.786;2023-04-01T00:48:03;99143.53;;;16.80
34125;BMP280;20110;53.120;5.786;2023-04-01T00:50:31;99139.22;;;16.62
34125;BMP280;20110;53.120;5.786;2023-04-01T00:53:00;99130.97;;;16.44
34125;BMP280;20110;53.120;5.786;2023-04-01T00:55:28;99153.91;;;16.61
34125;BMP280;20110;53.120;5.786;2023-04-01T00:57:58;99156.69;;;16.63
34125;BMP280;20110;53.120;5.786;2023-04-01T01:00:25;99148.28;;;16.68
34125;BMP280;20110;53.120;5.786;2023-04-01T01:02:52;99149.00;;;16.69
34125;BMP280;20110;53.120;5.786;2023-04-01T01:05:29;99151.50;;;16.78
34125;BMP280;20110;53.120;5.786;2023-04-01T01:08:28;99151.50;;;16.78
34125;BMP280;20110;53.120;5.786;2023-04-01T01:10:56;99159.84;;;16.84
34125;BMP280;20110;53.120;5.786;2023-04-01T01:13:42;99145.63;;;16.68
34125;BMP280;20110;53.120;5.786;2023-04-01T01:16:36;99151.06;;;16.70
34125;BMP280;20110;53.120;5.786;2023-04-01T01:31:02;99145.16;;;16.60
34125;BMP280;20110;53.120;5.786;2023-04-01T01:34:09;99174.81;;;16.76
34125;BMP280;20110;53.120;5.786;2023-04-01T01:36:40;99173.59;;;16.79
34125;BMP280;20110;53.120;5.786;2023-04-01T01:39:09;99170.16;;;16.76
34125;BMP280;20110;53.120;5.786;2023-04-01T01:41:39;99174.00;;;16.73
34125;BMP280;20110;53.120;5.786;2023-04-01T01:44:11;99179.75;;;16.68
34125;BMP280;20110;53.120;5.786;2023-04-01T01:46:41;99179.84;;;16.70
34125;BMP280;20110;53.120;5.786;2023-04-01T01:49:11;99160.09;;;16.63
34125;BMP280;20110;53.120;5.786;2023-04-01T01:51:38;99185.34;;;16.85
34125;BMP280;20110;53.120;5.786;2023-04-01T01:54:05;99186.75;;;16.86
34125;BMP280;20110;53.120;5.786;2023-04-01T01:56:34;99162.28;;;16.67
34125;BMP280;20110;53.120;5.786;2023-04-01T01:59:07;99185.72;;;16.80
34125;BMP280;20110;53.120;5.786;2023-04-01T02:01:39;99173.41;;;16.75
34125;BMP280;20110;53.120;5.786;2023-04-01T02:04:09;99191.41;;;16.86
34125;BMP280;20110;53.120;5.786;2023-04-01T02:06:43;99188.50;;;16.82
34125;BMP280;20110;53.120;5.786;2023-04-01T02:09:11;99201.97;;;16.96
34125;BMP280;20110;53.120;5.786;2023-04-01T02:11:57;99198.88;;;16.87
34125;BMP280;20110;53.120;5.786;2023-04-01T02:14:51;99206.41;;;16.91
34125;BMP280;20110;53.120;5.786;2023-04-01T02:17:24;99196.09;;;16.85
34125;BMP280;20110;53.120;5.786;2023-04-01T02:19:59;99193.75;;;16.80
34125;BMP280;20110;53.120;5.786;2023-04-01T02:22:36;99191.94;;;16.71
34125;BMP280;20110;53.120;5.786;2023-04-01T02:25:11;99208.69;;;16.83
34125;BMP280;20110;53.120;5.786;2023-04-01T02:27:38;99176.50;;;16.83
34125;BMP280;20110;53.120;5.786;2023-04-01T02:30:05;99223.09;;;17.03
34125;BMP280;20110;53.120;5.786;2023-04-01T02:32:33;99216.53;;;16.92
34125;BMP280;20110;53.120;5.786;2023-04-01T02:35:10;99212.94;;;16.88
34125;BMP280;20110;53.120;5.786;2023-04-01T02:37:38;99222.28;;;16.87
34125;BMP280;20110;53.120;5.786;2023-04-01T02:40:07;99222.28;;;16.87
34125;BMP280;20110;53.120;5.786;2023-04-01T02:42:34;99192.75;;;16.73
34125;BMP280;20110;53.120;5.786;2023-04-01T02:45:00;99211.75;;;16.77
34125;BMP280;20110;53.120;5.786;2023-04-01T02:47:26;99229.53;;;16.84
34125;BMP280;20110;53.120;5.786;2023-04-01T02:49:51;99222.81;;;16.72
34125;BMP280;20110;53.120;5.786;2023-04-01T02:52:24;99235.00;;;16.86
34125;BMP280;20110;53.120;5.786;2023-04-01T02:54:50;99213.19;;;16.67
34125;BMP280;20110;53.120;5.786;2023-04-01T02:57:16;99239.06;;;16.87
34125;BMP280;20110;53.120;5.786;2023-04-01T02:59:42;99213.88;;;16.67
34125;BMP280;20110;53.120;5.786;2023-04-01T03:02:08;99246.78;;;16.81
34125;BMP280;20110;53.120;5.786;2023-04-01T03:04:34;99244.09;;;16.81
34125;BMP280;20110;53.120;5.786;2023-04-01T03:06:59;99256.53;;;16.88
34125;BMP280;20110;53.120;5.786;2023-04-01T03:09:25;99246.09;;;16.81
34125;BMP280;20110;53.120;5.786;2023-04-01T03:11:51;99257.22;;;16.89
34125;BMP280;20110;53.120;5.786;2023-04-01T03:14:17;99257.72;;;16.85
34125;BMP280;20110;53.120;5.786;2023-04-01T03:16:42;99262.59;;;16.89
34125;BMP280;20110;53.120;5.786;2023-04-01T03:19:08;99259.22;;;16.88
34125;BMP280;20110;53.120;5.786;2023-04-01T03:21:34;99274.59;;;16.88
34125;BMP280;20110;53.120;5.786;2023-04-01T03:24:00;99274.50;;;16.86
34125;BMP280;20110;53.120;5.786;2023-04-01T03:26:26;99255.78;;;16.74
34125;BMP280;20110;53.120;5.786;2023-04-01T03:28:55;99246.16;;;16.69
34125;BMP280;20110;53.120;5.786;2023-04-01T03:31:21;99274.09;;;16.78
34125;BMP280;20110;53.120;5.786;2023-04-01T03:33:47;99273.63;;;16.70
34125;BMP280;20110;53.120;5.786;2023-04-01T03:36:13;99284.09;;;16.77
34125;BMP280;20110;53.120;5.786;2023-04-01T03:38:44;99290.88;;;16.78
34125;BMP280;20110;53.120;5.786;2023-04-01T03:41:17;99265.06;;;16.60
34125;BMP280;20110;53.120;5.786;2023-04-01T03:43:44;99272.34;;;16.71
34125;BMP280;20110;53.120;5.786;2023-04-01T03:46:10;99292.59;;;16.85
34125;BMP280;20110;53.120;5.786;2023-04-01T03:48:36;99283.88;;;16.73
34125;BMP280;20110;53.120;5.786;2023-04-01T03:51:07;99294.13;;;16.77
34125;BMP280;20110;53.120;5.786;2023-04-01T03:53:33;99303.84;;;16.84
34125;BMP280;20110;53.120;5.786;2023-04-01T03:56:04;99295.41;;;16.76
34125;BMP280;20110;53.120;5.786;2023-04-01T03:58:30;99303.78;;;16.82
34125;BMP280;20110;53.120;5.786;2023-04-01T04:00:56;99314.38;;;16.80
34125;BMP280;20110;53.120;5.786;2023-04-01T04:03:22;99308.94;;;16.78
34125;BMP280;20110;53.120;5.786;2023-04-01T04:05:49;99298.50;;;16.59
34125;BMP280;20110;53.120;5.786;2023-04-01T04:08:16;99315.44;;;16.75
34125;BMP280;20110;53.120;5.786;2023-04-01T04:10:42;99319.53;;;16.76
34125;BMP280;20110;53.120;5.786;2023-04-01T04:13:09;99303.94;;;16.61
34125;BMP280;20110;53.120;5.786;2023-04-01T04:15:35;99296.06;;;16.51
34125;BMP280;20110;53.120;5.786;2023-04-01T04:18:01;99295.72;;;16.57
34125;BMP280;20110;53.120;5.786;2023-04-01T04:20:26;99315.84;;;16.69
34125;BMP280;20110;53.120;5.786;2023-04-01T04:22:52;99301.06;;;16.57
34125;BMP280;20110;53.120;5.786;2023-04-01T04:25:18;99318.41;;;16.67
34125;BMP280;20110;53.120;5.786;2023-04-01T04:27:44;99335.31;;;16.83
34125;BMP280;20110;53.120;5.786;2023-04-01T04:30:10;99340.00;;;16.83
34125;BMP280;20110;53.120;5.786;2023-04-01T04:32:36;99329.22;;;16.69
34125;BMP280;20110;53.120;5.786;2023-04-01T04:35:02;99347.94;;;16.81
34125;BMP280;20110;53.120;5.786;2023-04-01T04:37:28;99345.06;;;16.77
34125;BMP280;20110;53.120;5.786;2023-04-01T04:39:54;99317.97;;;16.59
34125;BMP280;20110;53.120;5.786;2023-04-01T04:42:20;99352.59;;;16.80
34125;BMP280;20110;53.120;5.786;2023-04-01T04:44:46;99338.19;;;16.62
34125;BMP280;20110;53.120;5.786;2023-04-01T04:47:12;99364.03;;;16.81
34125;BMP280;20110;53.120;5.786;2023-04-01T04:49:38;99352.88;;;16.73
34125;BMP280;20110;53.120;5.786;2023-04-01T04:52:04;99371.38;;;16.80
34125;BMP280;20110;53.120;5.786;2023-04-01T04:54:29;99370.06;;;16.81
34125;BMP280;20110;53.120;5.786;2023-04-01T04:56:55;99358.72;;;16.69
34125;BMP280;20110;53.120;5.786;2023-04-01T04:59:21;99377.44;;;16.81
34125;BMP280;20110;53.120;5.786;2023-04-01T05:01:47;99379.41;;;16.80
34125;BMP280;20110;53.120;5.786;2023-04-01T05:04:12;99374.78;;;16.69
34125;BMP280;20110;53.120;5.786;2023-04-01T05:06:38;99385.25;;;16.77
34125;BMP280;20110;53.120;5.786;2023-04-01T05:09:04;99348.97;;;16.50
34125;BMP280;20110;53.120;5.786;2023-04-01T05:11:30;99364.22;;;16.60
34125;BMP280;20110;53.120;5.786;2023-04-01T05:13:55;99381.75;;;16.74
34125;BMP280;20110;53.120;5.786;2023-04-01T05:16:21;99399.09;;;16.85
34125;BMP280;20110;53.120;5.786;2023-04-01T05:18:47;99396.41;;;16.85
34125;BMP280;20110;53.120;5.786;2023-04-01T05:21:15;99402.94;;;16.82
34125;BMP280;20110;53.120;5.786;2023-04-01T05:23:42;99406.44;;;16.84
34125;BMP280;20110;53.120;5.786;2023-04-01T05:26:12;99409.94;;;16.87
34125;BMP280;20110;53.120;5.786;2023-04-01T05:28:38;99413.41;;;16.89
34125;BMP280;20110;53.120;5.786;2023-04-01T05:31:05;99426.22;;;16.91
34125;BMP280;20110;53.120;5.786;2023-04-01T05:33:32;99417.63;;;16.81
34125;BMP280;20110;53.120;5.786;2023-04-01T05:36:10;99398.69;;;16.65
34125;BMP280;20110;53.120;5.786;2023-04-01T05:38:37;99423.34;;;16.87
34125;BMP280;20110;53.120;5.786;2023-04-01T05:41:03;99435.06;;;16.93
34125;BMP280;20110;53.120;5.786;2023-04-01T05:43:29;99428.09;;;16.88
34125;BMP280;20110;53.120;5.786;2023-04-01T05:45:56;99445.22;;;16.95
34125;BMP280;20110;53.120;5.786;2023-04-01T05:48:22;99449.19;;;16.94
34125;BMP280;20110;53.120;5.786;2023-04-01T05:50:48;99424.88;;;16.78
34125;BMP280;20110;53.120;5.786;2023-04-01T05:53:14;99444.19;;;16.88
34125;BMP280;20110;53.120;5.786;2023-04-01T05:55:39;99445.59;;;16.89
34125;BMP280;20110;53.120;5.786;2023-04-01T05:58:05;99459.91;;;16.94
34125;BMP280;20110;53.120;5.786;2023-04-01T06:00:31;99459.81;;;16.92
34125;BMP280;20110;53.120;5.786;2023-04-01T06:02:59;99471.09;;;16.90
34125;BMP280;20110;53.120;5.786;2023-04-01T06:05:29;99467.72;;;16.90
34125;BMP280;20110;53.120;5.786;2023-04-01T06:08:06;99459.25;;;16.82
34125;BMP280;20110;53.120;5.786;2023-04-01T06:11:04;99469.97;;;16.82
34125;BMP280;20110;53.120;5.786;2023-04-01T06:16:57;99485.22;;;16.91
34125;BMP280;20110;53.120;5.786;2023-04-01T06:19:39;99487.06;;;16.88
34125;BMP280;20110;53.120;5.786;2023-04-01T06:23:03;99495.31;;;16.92
34125;BMP280;20110;53.120;5.786;2023-04-01T06:25:41;99502.94;;;16.96
34125;BMP280;20110;53.120;5.786;2023-04-01T06:31:46;99499.53;;;16.84
34125;BMP280;20110;53.120;5.786;2023-04-01T06:42:09;99511.56;;;16.83
34125;BMP280;20110;53.120;5.786;2023-04-01T06:48:02;99522.88;;;16.81
34125;BMP280;20110;53.120;5.786;2023-04-01T06:53:56;99539.53;;;16.91
34125;BMP280;20110;53.120;5.786;2023-04-01T06:56:29;99536.16;;;16.91
34125;BMP280;20110;53.120;5.786;2023-04-01T06:59:05;99515.31;;;16.78
34125;BMP280;20110;53.120;5.786;2023-04-01T07:01:42;99541.97;;;16.99
34125;BMP280;20110;53.120;5.786;2023-04-01T07:04:37;99539.88;;;16.98
34125;BMP280;20110;53.120;5.786;2023-04-01T07:09:55;99559.34;;;17.10
34125;BMP280;20110;53.120;5.786;2023-04-01T07:15:20;99564.59;;;17.08
34125;BMP280;20110;53.120;5.786;2023-04-01T07:17:55;99573.44;;;17.10
34125;BMP280;20110;53.120;5.786;2023-04-01T07:20:32;99578.31;;;17.14
34125;BMP280;20110;53.120;5.786;2023-04-01T07:23:37;99585.22;;;17.17
34125;BMP280;20110;53.120;5.786;2023-04-01T07:26:22;99583.94;;;17.18
34125;BMP280;20110;53.120;5.786;2023-04-01T07:28:51;99567.03;;;17.04
34125;BMP280;20110;53.120;5.786;2023-04-01T07:31:52;99595.81;;;17.15
34125;BMP280;20110;53.120;5.786;2023-04-01T07:37:22;99605.59;;;17.22
34125;BMP280;20110;53.120;5.786;2023-04-01T07:40:10;99619.81;;;17.24
34125;BMP280;20110;53.120;5.786;2023-04-01T07:46:21;99613.41;;;17.29
34125;BMP280;20110;53.120;5.786;2023-04-01T07:49:33;99622.41;;;17.22
34125;BMP280;20110;53.120;5.786;2023-04-01T07:52:08;99621.13;;;17.23
34125;BMP280;20110;53.120;5.786;2023-04-01T07:58:09;99645.09;;;17.45
34125;BMP280;20110;53.120;5.786;2023-04-01T08:01:13;99640.81;;;17.40
34125;BMP280;20110;53.120;5.786;2023-04-01T08:07:25;99606.78;;;17.07
34125;BMP280;20110;53.120;5.786;2023-04-01T08:13:30;99617.25;;;17.26
34125;BMP280;20110;53.120;5.786;2023-04-01T08:19:15;99677.75;;;17.64
34125;BMP280;20110;53.120;5.786;2023-04-01T08:21:51;99662.16;;;17.49
34125;BMP280;20110;53.120;5.786;2023-04-01T08:24:35;99689.75;;;17.75
34125;BMP280;20110;53.120;5.786;2023-04-01T08:27:20;99693.59;;;17.84
34125;BMP280;20110;53.120;5.786;2023-04-01T08:33:26;99696.34;;;17.97
34125;BMP280;20110;53.120;5.786;2023-04-01T08:36:26;99689.69;;;17.98
34125;BMP280;20110;53.120;5.786;2023-04-01T08:39:01;99715.78;;;18.09
34125;BMP280;20110;53.120;5.786;2023-04-01T08:50:30;99734.25;;;18.15
34125;BMP280;20110;53.120;5.786;2023-04-01T08:56:23;99741.75;;;18.30
34125;BMP280;20110;53.120;5.786;2023-04-01T09:02:50;99742.38;;;18.93
34125;BMP280;20110;53.120;5.786;2023-04-01T09:15:02;99760.84;;;19.67
34125;BMP280;20110;53.120;5.786;2023-04-01T09:32:12;99784.06;;;19.88
34125;BMP280;20110;53.120;5.786;2023-04-01T09:38:40;99804.56;;;20.08
34125;BMP280;20110;53.120;5.786;2023-04-01T09:41:27;99756.88;;;19.97
34125;BMP280;20110;53.120;5.786;2023-04-01T09:44:12;99777.72;;;19.97
34125;BMP280;20110;53.120;5.786;2023-04-01T09:47:28;99812.34;;;20.02
34125;BMP280;20110;53.120;5.786;2023-04-01T09:50:17;99814.16;;;19.98
34125;BMP280;20110;53.120;5.786;2023-04-01T10:07:46;99836.13;;;19.65
34125;BMP280;20110;53.120;5.786;2023-04-01T10:10:47;99840.25;;;19.80
34125;BMP280;20110;53.120;5.786;2023-04-01T10:23:35;99865.06;;;19.64
34125;BMP280;20110;53.120;5.786;2023-04-01T10:33:06;99865.41;;;20.27
34125;BMP280;20110;53.120;5.786;2023-04-01T10:55:37;99909.97;;;20.01
34125;BMP280;20110;53.120;5.786;2023-04-01T11:25:54;99968.28;;;19.55
34125;BMP280;20110;53.120;5.786;2023-04-01T11:28:34;99965.88;;;19.48
34125;BMP280;20110;53.120;5.786;2023-04-01T11:39:53;99990.72;;;19.60
34125;BMP280;20110;53.120;5.786;2023-04-01T11:48:27;99986.78;;;19.88
34125;BMP280;20110;53.120;5.786;2023-04-01T11:51:27;99987.59;;;19.91
34125;BMP280;20110;53.120;5.786;2023-04-01T11:54:32;100018.34;;;20.13
34125;BMP280;20110;53.120;5.786;2023-04-01T12:35:24;100079.44;;;19.69
34125;BMP280;20110;53.120;5.786;2023-04-01T12:38:36;100100.00;;;19.77
34125;BMP280;20110;53.120;5.786;2023-04-01T12:44:17;100108.97;;;19.67
34125;BMP280;20110;53.120;5.786;2023-04-01T12:55:41;100122.41;;;19.30
34125;BMP280;20110;53.120;5.786;2023-04-01T12:58:49;100129.09;;;19.18
34125;BMP280;20110;53.120;5.786;2023-04-01T13:10:20;100142.19;;;19.72
34125;BMP280;20110;53.120;5.786;2023-04-01T13:13:31;100157.41;;;19.79
34125;BMP280;20110;53.120;5.786;2023-04-01T13:16:29;100156.78;;;19.81
34125;BMP280;20110;53.120;5.786;2023-04-01T13:27:39;100182.44;;;19.82
34125;BMP280;20110;53.120;5.786;2023-04-01T13:30:30;100178.59;;;19.73
34125;BMP280;20110;53.120;5.786;2023-04-01T13:36:07;100178.88;;;19.65
34125;BMP280;20110;53.120;5.786;2023-04-01T13:42:14;100179.75;;;19.21
34125;BMP280;20110;53.120;5.786;2023-04-01T13:44:51;100156.06;;;18.83
34125;BMP280;20110;53.120;5.786;2023-04-01T14:10:43;100238.16;;;18.39
34125;BMP280;20110;53.120;5.786;2023-04-01T14:16:40;100269.78;;;18.29
34125;BMP280;20110;53.120;5.786;2023-04-01T14:28:29;100283.97;;;18.20
34125;BMP280;20110;53.120;5.786;2023-04-01T14:36:29;100303.19;;;17.74
34125;BMP280;20110;53.120;5.786;2023-04-01T14:42:31;100311.88;;;17.63
34125;BMP280;20110;53.120;5.786;2023-04-01T14:45:40;100319.59;;;17.68
34125;BMP280;20110;53.120;5.786;2023-04-01T14:48:28;100324.47;;;17.60
34125;BMP280;20110;53.120;5.786;2023-04-01T14:51:09;100314.06;;;17.45
34125;BMP280;20110;53.120;5.786;2023-04-01T14:53:57;100339.84;;;17.60
34125;BMP280;20110;53.120;5.786;2023-04-01T14:56:43;100337.50;;;17.45
34125;BMP280;20110;53.120;5.786;2023-04-01T14:59:15;100352.28;;;17.65
34125;BMP280;20110;53.120;5.786;2023-04-01T15:01:57;100343.91;;;17.30
34125;BMP280;20110;53.120;5.786;2023-04-01T15:04:50;100357.59;;;17.24
34125;BMP280;20110;53.120;5.786;2023-04-01T15:08:09;100366.78;;;17.12
34125;BMP280;20110;53.120;5.786;2023-04-01T15:28:17;100420.44;;;17.02
34125;BMP280;20110;53.120;5.786;2023-04-01T15:31:33;100418.75;;;16.97
34125;BMP280;20110;53.120;5.786;2023-04-01T15:43:06;100435.94;;;16.29
34125;BMP280;20110;53.120;5.786;2023-04-01T15:46:48;100441.72;;;16.25
34125;BMP280;20110;53.120;5.786;2023-04-01T15:49:13;100450.97;;;16.41
34125;BMP280;20110;53.120;5.786;2023-04-01T15:58:21;100477.03;;;16.41
34125;BMP280;20110;53.120;5.786;2023-04-01T16:04:28;100486.34;;;16.13
34125;BMP280;20110;53.120;5.786;2023-04-01T16:12:54;100516.41;;;15.94
34125;BMP280;20110;53.120;5.786;2023-04-01T16:15:29;100495.97;;;15.72
34125;BMP280;20110;53.120;5.786;2023-04-01T16:18:44;100522.25;;;15.83
34125;BMP280;20110;53.120;5.786;2023-04-01T16:23:59;100537.59;;;15.65
34125;BMP280;20110;53.120;5.786;2023-04-01T16:26:53;100511.78;;;15.43
34125;BMP280;20110;53.120;5.786;2023-04-01T16:29:28;100546.44;;;15.58
34125;BMP280;20110;53.120;5.786;2023-04-01T16:35:25;100550.19;;;15.38
34125;BMP280;20110;53.120;5.786;2023-04-01T16:46:31;100587.56;;;15.21
34125;BMP280;20110;53.120;5.786;2023-04-01T16:49:24;100596.72;;;15.18
34125;BMP280;20110;53.120;5.786;2023-04-01T16:59:37;100616.84;;;14.94
34125;BMP280;20110;53.120;5.786;2023-04-01T17:04:57;100630.81;;;14.77
34125;BMP280;20110;53.120;5.786;2023-04-01T17:07:40;100589.97;;;14.52
34125;BMP280;20110;53.120;5.786;2023-04-01T17:16:43;100644.75;;;14.68
34125;BMP280;20110;53.120;5.786;2023-04-01T17:19:41;100659.72;;;14.71
34125;BMP280;20110;53.120;5.786;2023-04-01T17:30:37;100678.13;;;14.52
34125;BMP280;20110;53.120;5.786;2023-04-01T17:33:28;100691.66;;;14.54
34125;BMP280;20110;53.120;5.786;2023-04-01T17:36:31;100701.66;;;14.53
34125;BMP280;20110;53.120;5.786;2023-04-01T17:39:26;100712.69;;;14.50
34125;BMP280;20110;53.120;5.786;2023-04-01T17:42:14;100719.47;;;14.43
34125;BMP280;20110;53.120;5.786;2023-04-01T17:48:13;100732.31;;;14.29
34125;BMP280;20110;53.120;5.786;2023-04-01T17:53:43;100738.91;;;14.13
34125;BMP280;20110;53.120;5.786;2023-04-01T17:56:45;100703.47;;;13.67
34125;BMP280;20110;53.120;5.786;2023-04-01T17:59:38;100756.34;;;14.07
34125;BMP280;20110;53.120;5.786;2023-04-01T18:02:25;100750.47;;;14.01
34125;BMP280;20110;53.120;5.786;2023-04-01T18:08:17;100775.22;;;14.01
34125;BMP280;20110;53.120;5.786;2023-04-01T18:14:23;100796.91;;;13.82
34125;BMP280;20110;53.120;5.786;2023-04-01T18:20:07;100809.31;;;13.65
34125;BMP280;20110;53.120;5.786;2023-04-01T18:25:41;100821.41;;;13.66
34125;BMP280;20110;53.120;5.786;2023-04-01T18:39:03;100868.78;;;13.73
34125;BMP280;20110;53.120;5.786;2023-04-01T18:50:54;100884.38;;;13.69
34125;BMP280;20110;53.120;5.786;2023-04-01T18:53:43;100887.41;;;13.65
34125;BMP280;20110;53.120;5.786;2023-04-01T18:56:38;100906.31;;;13.75
34125;BMP280;20110;53.120;5.786;2023-04-01T18:59:23;100895.94;;;13.64
34125;BMP280;20110;53.120;5.786;2023-04-01T19:05:10;100920.72;;;13.79
34125;BMP280;20110;53.120;5.786;2023-04-01T19:10:16;100932.13;;;13.72
34125;BMP280;20110;53.120;5.786;2023-04-01T19:13:25;100942.78;;;13.72
34125;BMP280;20110;53.120;5.786;2023-04-01T19:24:44;100968.81;;;13.59
34125;BMP280;20110;53.120;5.786;2023-04-01T19:27:38;100945.91;;;13.35
34125;BMP280;20110;53.120;5.786;2023-04-01T19:36:13;100994.22;;;13.52
34125;BMP280;20110;53.120;5.786;2023-04-01T19:48:40;101021.38;;;13.43
34125;BMP280;20110;53.120;5.786;2023-04-01T19:51:37;101024.78;;;13.43
34125;BMP280;20110;53.120;5.786;2023-04-01T19:54:35;101020.94;;;13.31
34125;BMP280;20110;53.120;5.786;2023-04-01T19:57:34;101010.03;;;13.22
34125;BMP280;20110;53.120;5.786;2023-04-01T20:03:41;101046.56;;;13.34
34125;BMP280;20110;53.120;5.786;2023-04-01T20:06:44;101063.97;;;13.28
34125;BMP280;20110;53.120;5.786;2023-04-01T20:15:41;101057.94;;;13.14
34125;BMP280;20110;53.120;5.786;2023-04-01T20:18:24;101059.81;;;13.06
34125;BMP280;20110;53.120;5.786;2023-04-01T20:23:48;101098.53;;;13.20
34125;BMP280;20110;53.120;5.786;2023-04-01T20:26:24;101086.50;;;13.06
34125;BMP280;20110;53.120;5.786;2023-04-01T20:40:39;101129.66;;;13.04
34125;BMP280;20110;53.120;5.786;2023-04-01T20:43:33;101129.78;;;12.99
34125;BMP280;20110;53.120;5.786;2023-04-01T20:46:23;101141.28;;;12.94
34125;BMP280;20110;53.120;5.786;2023-04-01T20:49:01;101156.53;;;12.93
34125;BMP280;20110;53.120;5.786;2023-04-01T20:51:39;101157.56;;;12.90
34125;BMP280;20110;53.120;5.786;2023-04-01T20:54:36;101158.78;;;12.89
34125;BMP280;20110;53.120;5.786;2023-04-01T21:00:26;101130.44;;;12.65
34125;BMP280;20110;53.120;5.786;2023-04-01T21:09:44;101192.66;;;12.81
34125;BMP280;20110;53.120;5.786;2023-04-01T21:12:59;101195.44;;;12.75
34125;BMP280;20110;53.120;5.786;2023-04-01T21:22:04;101222.06;;;12.75
34125;BMP280;20110;53.120;5.786;2023-04-01T21:25:25;101219.09;;;12.66
34125;BMP280;20110;53.120;5.786;2023-04-01T21:40:27;101248.28;;;12.58
34125;BMP280;20110;53.120;5.786;2023-04-01T22:06:17;101301.88;;;12.23
34125;BMP280;20110;53.120;5.786;2023-04-01T22:11:59;101313.38;;;12.12
34125;BMP280;20110;53.120;5.786;2023-04-01T22:15:00;101291.34;;;12.30
34125;BMP280;20110;53.120;5.786;2023-04-01T22:21:17;101324.63;;;12.56
34125;BMP280;20110;53.120;5.786;2023-04-01T22:27:41;101333.13;;;12.54
34125;BMP280;20110;53.120;5.786;2023-04-01T22:30:29;101301.88;;;12.23
34125;BMP280;20110;53.120;5.786;2023-04-01T22:35:49;101347.53;;;12.45
34125;BMP280;20110;53.120;5.786;2023-04-01T22:38:40;101347.03;;;12.47
34125;BMP280;20110;53.120;5.786;2023-04-01T22:41:44;101355.31;;;12.43
34125;BMP280;20110;53.120;5.786;2023-04-01T22:51:05;101366.75;;;12.38
34125;BMP280;20110;53.120;5.786;2023-04-01T22:55:51;101340.53;;;12.10
34125;BMP280;20110;53.120;5.786;2023-04-01T22:58:30;101352.81;;;12.14
34125;BMP280;20110;53.120;5.786;2023-04-01T23:01:07;101390.59;;;12.31
34125;BMP280;20110;53.120;5.786;2023-04-01T23:03:41;101378.63;;;12.19
34125;BMP280;20110;53.120;5.786;2023-04-01T23:06:18;101337.44;;;11.88
34125;BMP280;20110;53.120;5.786;2023-04-01T23:23:12;101432.13;;;12.21
34125;BMP280;20110;53.120;5.786;2023-04-01T23:33:31;101442.97;;;12.04
34125;BMP280;20110;53.120;5.786;2023-04-01T23:36:10;101454.44;;;11.99
34125;BMP280;20110;53.120;5.786;2023-04-01T23:38:41;101458.06;;;11.96
34125;BMP280;20110;53.120;5.786;2023-04-01T23:41:18;101421.72;;;11.55
34125;BMP280;20110;53.120;5.786;2023-04-01T23:44:09;101470.00;;;11.89
34125;BMP280;20110;53.120;5.786;2023-04-01T23:46:40;101478.03;;;11.84
34125;BMP280;20110;53.120;5.786;2023-04-01T23:49:17;101450.47;;;11.57
34125;BMP280;20110;53.120;5.786;2023-04-01T23:51:58;101431.41;;;11.28
34125;BMP280;20110;53.120;5.786;2023-04-01T23:54:52;101493.66;;;11.68
34125;BMP280;20110;53.120;5.786;2023-04-01T23:57:31;101502.91;;;11.62
